Time;durP1;ratioP1;P1;durP2;ratioP2;P2;SDS_P1;SDS_P2;PMS_P1;PMS_P2;Temp;Humidity;BMP_temperature;BMP_pressure;BME280_temperature;BME280_humidity;BME280_pressure;Samples;Min_cycle;Max_cycle;Signal;HPM_P1;HPM_P2
2022/05/20 00:00:51;;;;;;;6.97;5.57;;;17.10;99.90;;;;;;5065367;28;20194;-73
2022/05/20 00:03:18;;;;;;;9.30;6.00;;;17.20;99.90;;;;;;5055792;28;20195;-72
2022/05/20 00:05:44;;;;;;;7.80;5.80;;;17.20;99.90;;;;;;5067519;28;20751;-72
2022/05/20 00:08:11;;;;;;;6.53;5.70;;;17.20;99.90;;;;;;5052804;28;20302;-73
2022/05/20 00:10:40;;;;;;;6.20;5.30;;;17.30;99.90;;;;;;5031809;28;20193;-72
2022/05/20 00:13:09;;;;;;;8.73;5.33;;;17.30;99.90;;;;;;5046141;28;20186;-73
2022/05/20 00:15:36;;;;;;;7.80;5.50;;;17.30;99.90;;;;;;5047663;28;20195;-72
2022/05/20 00:18:09;;;;;;;9.13;5.60;;;17.30;99.90;;;;;;5032822;28;20298;-73
2022/05/20 00:20:35;;;;;;;7.47;5.60;;;17.40;99.90;;;;;;5046602;28;20285;-73
2022/05/20 00:23:04;;;;;;;8.23;5.83;;;17.30;99.90;;;;;;5061493;28;20539;-73
2022/05/20 00:25:46;;;;;;;7.30;5.93;;;17.40;99.90;;;;;;5064513;28;20191;-72
2022/05/20 00:28:28;;;;;;;8.53;5.40;;;17.40;99.90;;;;;;5068969;28;20219;-72
2022/05/20 00:31:04;;;;;;;5.77;5.20;;;17.30;99.90;;;;;;5061173;28;20219;-72
2022/05/20 00:33:35;;;;;;;5.97;5.27;;;17.30;99.90;;;;;;5053173;28;20263;-72
2022/05/20 00:36:06;;;;;;;6.23;4.70;;;17.30;99.90;;;;;;5052524;28;20191;-72
2022/05/20 00:38:32;;;;;;;7.90;5.33;;;17.30;99.90;;;;;;5075972;28;20347;-72
2022/05/20 00:41:02;;;;;;;6.77;5.00;;;17.40;99.90;;;;;;5053789;28;20623;-72
2022/05/20 00:43:41;;;;;;;6.63;5.30;;;17.40;99.90;;;;;;5072047;28;20537;-72
2022/05/20 00:46:14;;;;;;;6.40;4.70;;;17.40;99.90;;;;;;5066000;28;20202;-72
2022/05/20 00:48:42;;;;;;;5.27;4.73;;;17.40;99.90;;;;;;5064731;28;20202;-72
2022/05/20 00:51:18;;;;;;;5.57;4.90;;;17.30;99.90;;;;;;5038711;28;20269;-72
2022/05/20 00:53:54;;;;;;;5.60;5.10;;;17.30;99.90;;;;;;5072075;28;20195;-72
2022/05/20 00:56:26;;;;;;;6.80;5.50;;;17.30;99.90;;;;;;5051235;28;20676;-72
2022/05/20 00:58:55;;;;;;;8.37;5.40;;;17.30;99.90;;;;;;5073977;28;20198;-72
2022/05/20 01:01:22;;;;;;;7.10;5.33;;;17.30;99.90;;;;;;5057836;28;20202;-73
2022/05/20 01:03:53;;;;;;;6.53;4.93;;;17.30;99.90;;;;;;5066542;28;20528;-72
2022/05/20 01:06:19;;;;;;;7.57;5.50;;;17.30;99.90;;;;;;5074410;28;20210;-72
2022/05/20 01:08:46;;;;;;;6.40;5.07;;;17.30;99.90;;;;;;5059889;28;20217;-72
2022/05/20 01:11:12;;;;;;;7.57;4.80;;;17.30;99.90;;;;;;5033934;28;21122;-73
2022/05/20 01:13:47;;;;;;;5.87;4.90;;;17.30;99.90;;;;;;5062084;28;20532;-72
2022/05/20 01:16:18;;;;;;;9.53;4.30;;;17.40;99.90;;;;;;5059891;28;20240;-73
2022/05/20 01:18:53;;;;;;;4.60;4.20;;;17.50;99.90;;;;;;5059693;28;20196;-73
2022/05/20 01:21:21;;;;;;;6.57;4.27;;;17.50;99.90;;;;;;5062354;28;20198;-72
2022/05/20 01:23:49;;;;;;;4.87;4.20;;;17.50;99.90;;;;;;5056636;28;20198;-72
2022/05/20 01:26:17;;;;;;;5.13;4.20;;;17.50;99.90;;;;;;5057222;28;20187;-72
2022/05/20 01:28:43;;;;;;;4.53;3.83;;;17.50;99.90;;;;;;5039384;28;20210;-72
2022/05/20 01:31:15;;;;;;;8.07;3.40;;;17.70;99.90;;;;;;5055846;28;20206;-72
2022/05/20 01:33:46;;;;;;;4.40;3.63;;;17.80;99.90;;;;;;5065070;28;20264;-72
2022/05/20 01:36:18;;;;;;;4.63;3.37;;;17.80;99.90;;;;;;5069630;28;20237;-72
2022/05/20 01:38:45;;;;;;;3.90;3.50;;;17.90;99.90;;;;;;5071373;28;20647;-72
2022/05/20 01:41:39;;;;;;;5.03;3.83;;;17.90;99.90;;;;;;5064373;28;20214;-72
2022/05/20 01:44:37;;;;;;;4.47;3.40;;;17.90;99.90;;;;;;5054443;28;20222;-72
2022/05/20 01:47:24;;;;;;;4.27;3.47;;;18.00;99.90;;;;;;5058387;28;20199;-72
2022/05/20 01:50:11;;;;;;;5.47;3.57;;;18.00;99.90;;;;;;5079979;28;20331;-73
2022/05/20 01:52:42;;;;;;;6.47;3.87;;;18.00;99.90;;;;;;5066590;28;20223;-73
2022/05/20 01:55:36;;;;;;;5.13;3.50;;;17.90;99.90;;;;;;5066465;28;20202;-72
2022/05/20 01:58:58;;;;;;;6.50;3.63;;;17.80;99.90;;;;;;5054433;28;20194;-72
2022/05/20 02:02:14;;;;;;;4.80;3.83;;;17.70;99.90;;;;;;5018595;28;20225;-72
2022/05/20 02:04:52;;;;;;;4.97;3.87;;;17.60;99.90;;;;;;5027053;28;20268;-72
2022/05/20 02:07:29;;;;;;;6.63;3.80;;;17.70;99.90;;;;;;5062770;28;20251;-72
2022/05/20 02:10:23;;;;;;;4.70;4.27;;;17.70;99.90;;;;;;5057660;28;20245;-72
2022/05/20 02:12:59;;;;;;;6.10;4.00;;;17.70;99.90;;;;;;5058359;28;20220;-72
2022/05/20 02:15:59;;;;;;;6.90;4.20;;;17.80;99.90;;;;;;5041513;28;20190;-72
2022/05/20 02:18:40;;;;;;;9.90;4.57;;;17.70;99.90;;;;;;5060264;28;20240;-72
2022/05/20 02:21:12;;;;;;;4.80;3.97;;;17.80;99.90;;;;;;5065513;28;20266;-72
2022/05/20 02:23:47;;;;;;;5.13;4.63;;;17.80;99.90;;;;;;5066311;28;20203;-72
2022/05/20 02:26:19;;;;;;;5.37;4.73;;;17.80;99.90;;;;;;5058761;28;20236;-72
2022/05/20 02:29:02;;;;;;;9.87;5.10;;;17.90;99.90;;;;;;5062468;28;20256;-72
2022/05/20 02:32:02;;;;;;;7.37;5.20;;;17.80;99.90;;;;;;5059497;28;20215;-72
2022/05/20 02:34:32;;;;;;;7.13;5.10;;;17.80;99.90;;;;;;5044912;28;20199;-72
2022/05/20 02:36:58;;;;;;;7.07;5.17;;;17.80;99.90;;;;;;5043078;28;20207;-72
2022/05/20 02:39:25;;;;;;;7.53;4.90;;;17.90;99.90;;;;;;5060727;28;20186;-72
2022/05/20 02:41:59;;;;;;;6.40;4.77;;;17.90;99.90;;;;;;5043124;28;20218;-72
2022/05/20 02:44:26;;;;;;;9.97;4.97;;;17.90;99.90;;;;;;5059896;28;20274;-72
2022/05/20 02:46:53;;;;;;;5.80;5.03;;;17.90;99.90;;;;;;5030134;28;20190;-72
2022/05/20 02:49:20;;;;;;;5.53;4.60;;;17.80;99.90;;;;;;5060752;28;20298;-72
2022/05/20 02:51:47;;;;;;;6.80;4.67;;;17.80;99.90;;;;;;5057483;28;20659;-73
2022/05/20 02:54:14;;;;;;;6.37;4.70;;;17.70;99.90;;;;;;5065143;28;20636;-73
2022/05/20 02:56:40;;;;;;;6.07;4.70;;;17.70;99.90;;;;;;5059888;28;20722;-73
2022/05/20 03:04:50;;;;;;;4.87;4.40;;;17.50;99.90;;;;;;5048813;28;20869;-72
2022/05/20 03:07:16;;;;;;;10.67;4.77;;;17.50;99.90;;;;;;5049204;28;20186;-72
2022/05/20 03:09:44;;;;;;;11.87;4.80;;;17.50;99.90;;;;;;5065647;28;20556;-72
2022/05/20 03:12:13;;;;;;;14.90;4.73;;;17.50;99.90;;;;;;5047977;28;20254;-72
2022/05/20 03:14:40;;;;;;;6.03;4.83;;;17.50;99.90;;;;;;5046788;28;20188;-72
2022/05/20 03:17:07;;;;;;;9.47;5.30;;;17.50;99.90;;;;;;5042653;28;20187;-72
2022/05/20 03:19:34;;;;;;;6.43;5.07;;;17.60;99.90;;;;;;5065588;28;20207;-72
2022/05/20 03:22:03;;;;;;;9.10;5.50;;;17.70;99.90;;;;;;5060494;28;20210;-72
2022/05/20 03:24:30;;;;;;;6.70;5.40;;;17.70;99.90;;;;;;5046815;28;20198;-72
2022/05/20 03:26:59;;;;;;;7.00;5.20;;;17.70;99.90;;;;;;5062497;28;20210;-73
2022/05/20 03:29:26;;;;;;;7.23;5.50;;;17.70;99.90;;;;;;5050459;28;20214;-73
2022/05/20 03:31:53;;;;;;;5.60;4.90;;;17.80;99.90;;;;;;5057997;28;20215;-72
2022/05/20 03:34:19;;;;;;;6.27;4.80;;;17.80;99.90;;;;;;5068924;28;20187;-72
2022/05/20 03:36:52;;;;;;;6.37;4.50;;;17.90;99.90;;;;;;5065169;28;20567;-72
2022/05/20 03:39:25;;;;;;;5.67;4.50;;;18.00;99.90;;;;;;5065171;28;20198;-72
2022/05/20 03:41:52;;;;;;;6.30;4.47;;;18.10;99.90;;;;;;5057494;28;20274;-72
2022/05/20 03:44:20;;;;;;;5.63;4.87;;;18.10;99.90;;;;;;5065633;28;20222;-72
2022/05/20 03:46:52;;;;;;;6.00;4.77;;;18.20;99.90;;;;;;5041170;28;20596;-72
2022/05/20 03:49:27;;;;;;;9.73;4.70;;;18.20;99.90;;;;;;5070593;28;20253;-72
2022/05/20 03:52:00;;;;;;;9.63;4.53;;;18.20;99.90;;;;;;5052355;28;20193;-73
2022/05/20 03:54:32;;;;;;;5.83;5.23;;;18.10;99.90;;;;;;5064663;28;20512;-73
2022/05/20 03:57:03;;;;;;;8.87;4.90;;;18.10;99.90;;;;;;5070402;28;20194;-72
2022/05/20 03:59:33;;;;;;;5.53;4.70;;;18.10;99.90;;;;;;5053048;28;20650;-72
2022/05/20 04:02:00;;;;;;;5.30;4.80;;;18.10;99.90;;;;;;5057152;28;20248;-72
2022/05/20 04:04:40;;;;;;;7.17;4.60;;;18.10;99.90;;;;;;5064385;28;21653;-73
2022/05/20 04:07:16;;;;;;;7.93;4.70;;;18.10;99.90;;;;;;5045994;28;20202;-72
2022/05/20 04:09:48;;;;;;;8.67;4.70;;;18.10;99.90;;;;;;5063485;28;20261;-72
2022/05/20 04:12:27;;;;;;;7.60;5.00;;;18.20;99.90;;;;;;5036718;28;20191;-72
2022/05/20 04:14:56;;;;;;;5.73;4.67;;;18.20;99.90;;;;;;5058217;28;20199;-72
2022/05/20 04:17:23;;;;;;;5.20;4.50;;;18.20;99.90;;;;;;5059757;28;20207;-72
2022/05/20 04:19:49;;;;;;;6.27;4.40;;;18.20;99.90;;;;;;5048418;28;20543;-73
2022/05/20 04:22:30;;;;;;;8.83;4.90;;;18.20;99.90;;;;;;5064653;28;20202;-72
2022/05/20 04:24:58;;;;;;;7.70;4.90;;;18.10;99.90;;;;;;5050124;28;20234;-72
2022/05/20 04:27:29;;;;;;;5.80;4.63;;;18.10;99.90;;;;;;5070109;28;20195;-72
2022/05/20 04:30:00;;;;;;;6.57;4.90;;;18.10;99.90;;;;;;5044408;28;20198;-72
2022/05/20 04:32:27;;;;;;;6.47;4.60;;;18.20;99.90;;;;;;5070577;28;20963;-73
2022/05/20 04:34:53;;;;;;;7.53;4.77;;;18.20;99.90;;;;;;5056575;28;20191;-72
2022/05/20 04:37:22;;;;;;;6.03;4.73;;;18.20;99.90;;;;;;5034549;28;20647;-72
2022/05/20 04:39:48;;;;;;;8.93;4.60;;;18.20;99.90;;;;;;5044256;28;20221;-72
2022/05/20 04:47:49;;;;;;;5.00;4.47;;;18.30;99.90;;;;;;5061748;28;20183;-72
2022/05/20 04:50:19;;;;;;;5.30;4.27;;;18.40;99.90;;;;;;5066336;28;20694;-72
2022/05/20 04:52:45;;;;;;;6.07;4.27;;;18.40;99.90;;;;;;5066424;28;20183;-72
2022/05/20 04:55:11;;;;;;;5.20;4.70;;;18.50;99.90;;;;;;5042143;28;20210;-72
2022/05/20 04:57:46;;;;;;;4.67;3.97;;;18.50;99.90;;;;;;5063540;28;20214;-73
2022/05/20 05:00:30;;;;;;;7.47;4.77;;;18.50;99.90;;;;;;5028229;28;20697;-72
2022/05/20 05:03:00;;;;;;;5.63;4.83;;;18.60;99.90;;;;;;5058531;28;20232;-72
2022/05/20 05:05:29;;;;;;;5.87;4.20;;;18.80;99.90;;;;;;5063116;28;20268;-72
2022/05/20 05:08:00;;;;;;;5.93;4.50;;;18.90;99.90;;;;;;5051853;28;20194;-73
2022/05/20 05:10:31;;;;;;;5.27;4.40;;;19.00;99.90;;;;;;5058654;28;20719;-72
2022/05/20 05:13:01;;;;;;;5.67;4.60;;;19.00;99.90;;;;;;5072557;28;20235;-72
2022/05/20 05:15:28;;;;;;;5.90;4.63;;;19.10;99.90;;;;;;5027823;28;21549;-72
2022/05/20 05:18:12;;;;;;;5.73;4.43;;;19.10;99.90;;;;;;5053913;28;20190;-72
2022/05/20 05:20:52;;;;;;;8.93;4.70;;;19.10;99.90;;;;;;5052423;28;20650;-72
2022/05/20 05:23:21;;;;;;;9.83;5.10;;;19.20;99.90;;;;;;5050237;28;20183;-72
2022/05/20 05:25:48;;;;;;;8.03;4.80;;;19.20;99.90;;;;;;5064432;28;20179;-71
2022/05/20 05:28:16;;;;;;;10.10;4.80;;;19.30;99.90;;;;;;5052339;28;20274;-72
2022/05/20 05:30:47;;;;;;;5.83;4.87;;;19.30;99.90;;;;;;5062595;28;20283;-73
2022/05/20 05:33:14;;;;;;;8.93;5.10;;;19.40;99.90;;;;;;5038428;28;20183;-72
2022/05/20 05:35:45;;;;;;;7.97;5.03;;;19.50;99.90;;;;;;5046012;28;20621;-72
2022/05/20 05:38:17;;;;;;;7.80;4.53;;;19.50;99.90;;;;;;5058494;28;20237;-72
2022/05/20 05:40:44;;;;;;;7.17;4.80;;;19.60;99.90;;;;;;5032484;28;20193;-72
2022/05/20 05:43:14;;;;;;;7.80;5.10;;;19.70;99.90;;;;;;5060349;28;20916;-72
2022/05/20 05:45:44;;;;;;;10.20;4.73;;;19.80;99.90;;;;;;5053217;28;20190;-72
2022/05/20 05:48:15;;;;;;;7.47;5.10;;;19.80;99.90;;;;;;5070046;28;20214;-72
2022/05/20 05:50:42;;;;;;;7.27;4.83;;;19.80;99.90;;;;;;5066040;28;20194;-72
2022/05/20 05:53:17;;;;;;;7.03;5.30;;;19.90;99.90;;;;;;5046927;28;20194;-72
2022/05/20 05:55:48;;;;;;;7.03;5.00;;;19.90;99.90;;;;;;5023676;28;20186;-72
2022/05/20 05:58:16;;;;;;;8.20;5.30;;;20.00;99.90;;;;;;5056852;28;20187;-72
2022/05/20 06:00:43;;;;;;;9.17;4.83;;;20.00;99.90;;;;;;5028039;28;20187;-72
2022/05/20 06:03:11;;;;;;;7.70;4.97;;;20.10;99.90;;;;;;5044432;28;20632;-72
2022/05/20 06:05:41;;;;;;;9.30;4.93;;;20.20;99.90;;;;;;5067374;28;20248;-72
2022/05/20 06:08:07;;;;;;;7.77;4.90;;;20.30;99.90;;;;;;5051768;28;20679;-72
2022/05/20 06:10:35;;;;;;;6.40;4.80;;;20.40;99.90;;;;;;5034806;28;20302;-72
2022/05/20 06:13:03;;;;;;;5.87;4.70;;;20.40;99.90;;;;;;5061233;28;20206;-72
2022/05/20 06:15:31;;;;;;;7.27;4.77;;;20.50;99.90;;;;;;5037040;28;20216;-72
2022/05/20 06:18:01;;;;;;;6.77;4.77;;;20.50;99.90;;;;;;5036954;28;20194;-71
2022/05/20 06:20:31;;;;;;;8.27;5.17;;;20.60;99.90;;;;;;5062335;28;20225;-72
2022/05/20 06:23:01;;;;;;;6.43;4.93;;;20.70;99.90;;;;;;5056635;28;20191;-72
2022/05/20 06:25:28;;;;;;;7.17;4.83;;;20.80;99.90;;;;;;5060917;28;20189;-72
2022/05/20 06:28:03;;;;;;;10.37;5.03;;;20.90;99.90;;;;;;5043786;28;20636;-72
2022/05/20 06:30:32;;;;;;;8.23;4.83;;;21.00;99.90;;;;;;5070730;28;20222;-72
2022/05/20 06:32:58;;;;;;;10.23;5.03;;;21.10;99.90;;;;;;5039779;28;20211;-72
2022/05/20 06:41:02;;;;;;;5.93;4.67;;;21.30;99.90;;;;;;5060889;28;20227;-72
2022/05/20 06:43:30;;;;;;;6.63;4.83;;;21.40;99.90;;;;;;5056666;28;20211;-72
2022/05/20 06:46:00;;;;;;;7.97;4.20;;;21.50;99.90;;;;;;5052273;28;20187;-72
2022/05/20 06:48:45;;;;;;;4.57;4.17;;;21.60;99.90;;;;;;5053693;28;20244;-72
2022/05/20 06:51:17;;;;;;;4.83;3.87;;;21.70;99.90;;;;;;5056108;28;20191;-72
2022/05/20 06:53:47;;;;;;;7.73;4.23;;;21.80;99.90;;;;;;5023917;28;20194;-72
2022/05/20 06:56:16;;;;;;;7.30;4.67;;;21.90;99.90;;;;;;5063593;28;20202;-72
2022/05/20 06:58:46;;;;;;;14.20;5.43;;;22.00;99.90;;;;;;5059338;28;20639;-72
2022/05/20 07:01:15;;;;;;;9.60;4.90;;;22.10;99.90;;;;;;5026855;28;20221;-72
2022/05/20 07:03:43;;;;;;;8.37;5.03;;;22.20;99.90;;;;;;5059882;28;20204;-72
2022/05/20 07:06:12;;;;;;;9.03;4.63;;;22.20;99.90;;;;;;5053681;28;20198;-72
2022/05/20 07:08:40;;;;;;;6.50;4.20;;;22.30;99.90;;;;;;5060138;28;20262;-72
2022/05/20 07:11:08;;;;;;;11.97;4.50;;;22.40;99.90;;;;;;5060154;28;20247;-72
2022/05/20 07:13:35;;;;;;;6.27;4.53;;;22.40;99.90;;;;;;5055563;28;20183;-72
2022/05/20 07:16:01;;;;;;;9.33;4.33;;;22.50;99.90;;;;;;5024505;28;20218;-72
2022/05/20 07:18:29;;;;;;;6.00;4.18;;;22.60;99.90;;;;;;5037952;28;20248;-73
2022/05/20 07:20:56;;;;;;;9.73;4.23;;;22.60;99.90;;;;;;5035566;28;20218;-72
2022/05/20 07:23:28;;;;;;;9.97;4.67;;;22.70;99.90;;;;;;5056248;28;20625;-72
2022/05/20 07:25:55;;;;;;;11.23;4.60;;;22.70;99.90;;;;;;5059035;28;20187;-71
2022/05/20 07:28:22;;;;;;;9.07;4.05;;;22.80;99.90;;;;;;5034157;28;20182;-71
2022/05/20 07:30:48;;;;;;;10.85;4.45;;;22.90;99.90;;;;;;5073705;28;20679;-70
2022/05/20 07:33:18;;;;;;;8.68;4.35;;;22.90;99.90;;;;;;5042027;28;20277;-70
2022/05/20 07:35:44;;;;;;;5.40;4.20;;;23.00;99.90;;;;;;5058348;28;20190;-70
2022/05/20 07:38:15;;;;;;;9.25;4.50;;;23.00;99.90;;;;;;5024879;28;20188;-70
2022/05/20 07:40:45;;;;;;;5.80;4.38;;;23.10;99.90;;;;;;5060141;28;20822;-70
2022/05/20 07:43:12;;;;;;;6.43;4.15;;;23.10;99.90;;;;;;5060681;28;20193;-70
2022/05/20 07:45:40;;;;;;;10.77;4.43;;;23.20;99.90;;;;;;5035663;28;20187;-70
2022/05/20 07:48:13;;;;;;;8.48;4.40;;;23.20;99.90;;;;;;5019459;28;20624;-70
2022/05/20 07:50:59;;;;;;;5.38;4.15;;;23.30;99.90;;;;;;5061325;28;20539;-71
2022/05/20 07:53:39;;;;;;;4.93;4.18;;;23.30;99.90;;;;;;5040901;28;20191;-71
2022/05/20 07:56:31;;;;;;;8.68;4.55;;;23.30;99.90;;;;;;5063880;28;20233;-70
2022/05/20 07:59:08;;;;;;;5.57;4.03;;;23.40;99.90;;;;;;5051158;28;20183;-70
2022/05/20 08:01:41;;;;;;;6.53;3.60;;;23.40;99.90;;;;;;5061434;28;20186;-71
2022/05/20 08:07:10;;;;;;;5.47;3.47;;;23.60;99.90;;;;;;5054297;28;20186;-70
2022/05/20 08:09:36;;;;;;;7.75;4.00;;;23.70;99.90;;;;;;5060073;28;20244;-71
2022/05/20 08:12:04;;;;;;;9.02;3.75;;;23.80;99.90;;;;;;5061700;28;20202;-72
2022/05/20 08:14:30;;;;;;;4.80;3.80;;;23.90;99.90;;;;;;5042388;28;20218;-71
2022/05/20 08:17:01;;;;;;;5.38;4.07;;;23.90;99.90;;;;;;5060337;28;20552;-72
2022/05/20 08:19:29;;;;;;;5.97;3.58;;;24.00;99.90;;;;;;5023813;28;20650;-71
2022/05/20 08:21:55;;;;;;;7.78;3.65;;;24.00;99.90;;;;;;5052631;28;20191;-71
2022/05/20 08:24:30;;;;;;;7.95;4.07;;;24.10;99.90;;;;;;5041793;28;20232;-72
2022/05/20 08:26:58;;;;;;;6.07;3.72;;;24.20;99.90;;;;;;5027405;28;20186;-71
2022/05/20 08:29:32;;;;;;;7.78;3.67;;;24.30;99.90;;;;;;5058530;28;20213;-72
2022/05/20 08:32:00;;;;;;;5.53;3.88;;;24.30;99.90;;;;;;5054358;28;20911;-71
2022/05/20 08:34:27;;;;;;;7.65;3.63;;;24.40;99.90;;;;;;5037382;28;20238;-72
2022/05/20 08:36:54;;;;;;;4.05;3.33;;;24.30;99.90;;;;;;5052805;28;20297;-72
2022/05/20 08:39:27;;;;;;;4.47;3.20;;;24.40;99.90;;;;;;5037603;28;20195;-71
2022/05/20 08:41:58;;;;;;;8.75;3.85;;;24.40;99.90;;;;;;5064258;28;20199;-72
2022/05/20 08:44:25;;;;;;;5.63;3.13;;;24.50;99.90;;;;;;5056369;28;20191;-72
2022/05/20 08:47:23;;;;;;;9.15;3.50;;;24.50;99.90;;;;;;5042455;28;20935;-71
2022/05/20 08:50:00;;;;;;;5.65;3.25;;;24.60;99.90;;;;;;5058497;28;20206;-71
2022/05/20 08:52:28;;;;;;;6.35;3.30;;;24.70;99.90;;;;;;5054753;28;20191;-72
2022/05/20 08:54:55;;;;;;;8.27;3.50;;;24.80;99.90;;;;;;5043287;28;20663;-70
2022/05/20 08:57:32;;;;;;;9.00;3.55;;;24.80;99.90;;;;;;5054527;28;20187;-70
2022/05/20 08:59:58;;;;;;;32.75;4.72;;;24.90;99.90;;;;;;5061787;28;20262;-71
2022/05/20 09:02:28;;;;;;;6.93;2.95;;;25.00;99.90;;;;;;5056299;28;20204;-72
2022/05/20 09:04:57;;;;;;;6.78;3.15;;;25.10;99.90;;;;;;5044852;28;20199;-71
2022/05/20 09:07:24;;;;;;;6.40;3.25;;;25.10;99.90;;;;;;5057764;28;20221;-70
2022/05/20 09:09:55;;;;;;;9.40;3.50;;;25.20;99.90;;;;;;5044400;28;20590;-71
2022/05/20 09:12:37;;;;;;;5.63;3.13;;;25.30;99.90;;;;;;5038920;28;20324;-71
2022/05/20 09:15:43;;;;;;;9.82;3.42;;;25.30;99.90;;;;;;5070804;28;20541;-72
2022/05/20 09:18:43;;;;;;;13.38;3.55;;;25.40;99.90;;;;;;5024707;28;20278;-70
2022/05/20 09:21:35;;;;;;;7.32;3.33;;;25.40;99.90;;;;;;5070295;28;20202;-71
2022/05/20 09:24:28;;;;;;;7.97;3.15;;;25.40;99.90;;;;;;5059127;28;20214;-72
2022/05/20 09:27:13;;;;;;;6.68;3.00;;;25.40;99.90;;;;;;5037100;28;20292;-72
2022/05/20 09:29:53;;;;;;;6.88;3.00;;;25.50;99.90;;;;;;5034420;28;20226;-72
2022/05/20 09:33:09;;;;;;;6.55;3.28;;;25.50;99.90;;;;;;5069544;28;20933;-71
2022/05/20 09:35:36;;;;;;;6.72;2.95;;;25.60;99.90;;;;;;5031048;28;20264;-71
2022/05/20 09:38:38;;;;;;;8.95;3.03;;;25.70;99.90;;;;;;5041002;28;20205;-71
2022/05/20 09:41:33;;;;;;;10.02;3.15;;;25.70;99.90;;;;;;5060804;28;20209;-71
2022/05/20 09:44:04;;;;;;;8.57;3.00;;;25.90;99.90;;;;;;5063450;28;20214;-71
2022/05/20 09:47:20;;;;;;;7.40;2.80;;;26.00;99.90;;;;;;5027379;28;20222;-72
2022/05/20 09:49:58;;;;;;;7.45;2.95;;;26.10;99.90;;;;;;5037245;28;20222;-71
2022/05/20 09:52:52;;;;;;;5.65;2.90;;;26.00;99.90;;;;;;5024886;28;20191;-72
2022/05/20 09:55:37;;;;;;;6.63;2.75;;;26.20;99.90;;;;;;5048793;28;20271;-72
2022/05/20 09:58:18;;;;;;;8.63;3.03;;;26.30;99.90;;;;;;5035231;28;20286;-73
2022/05/20 10:00:57;;;;;;;6.53;2.90;;;26.40;99.90;;;;;;5052616;28;20227;-72
2022/05/20 10:03:51;;;;;;;7.13;2.75;;;26.30;99.90;;;;;;5035906;28;20205;-71
2022/05/20 10:06:41;;;;;;;8.13;2.97;;;26.40;99.90;;;;;;5024281;28;20184;-72
2022/05/20 10:09:44;;;;;;;7.28;2.80;;;26.40;99.90;;;;;;5072068;28;20226;-71
2022/05/20 10:12:38;;;;;;;8.25;2.90;;;26.40;99.90;;;;;;5050079;28;20277;-72
2022/05/20 10:15:42;;;;;;;8.57;3.00;;;26.40;99.90;;;;;;5059309;28;20270;-73
2022/05/20 10:18:32;;;;;;;6.47;3.03;;;26.50;99.90;;;;;;5051481;28;20199;-72
2022/05/20 10:21:52;;;;;;;7.80;2.95;;;26.50;99.90;;;;;;5054787;28;20191;-72
2022/05/20 10:24:41;;;;;;;7.95;2.75;;;26.30;99.90;;;;;;5015685;28;20544;-72
2022/05/20 10:27:43;;;;;;;9.88;3.00;;;26.30;99.90;;;;;;5042434;28;20281;-71
2022/05/20 10:33:12;;;;;;;7.95;3.00;;;26.30;99.90;;;;;;5059937;28;20187;-72
2022/05/20 10:35:55;;;;;;;5.28;2.75;;;26.40;99.90;;;;;;5058514;28;20690;-72
2022/05/20 10:38:57;;;;;;;9.80;2.80;;;26.40;99.90;;;;;;5059724;28;20253;-70
2022/05/20 10:41:32;;;;;;;10.18;2.80;;;26.40;99.90;;;;;;5075311;28;21490;-71
2022/05/20 10:50:28;;;;;;;9.48;3.15;;;26.40;99.90;;;;;;5041922;28;20233;-71
2022/05/20 10:53:23;;;;;;;11.38;3.05;;;26.40;99.90;;;;;;5052161;28;20186;-73
2022/05/20 10:56:30;;;;;;;7.13;3.00;;;26.30;99.90;;;;;;5059702;28;20274;-70
2022/05/20 10:59:17;;;;;;;9.80;3.30;;;26.20;99.90;;;;;;5059626;28;20206;-71
2022/05/20 11:02:38;;;;;;;13.55;3.20;;;26.30;99.90;;;;;;5057270;28;20226;-71
2022/05/20 11:05:14;;;;;;;9.93;3.20;;;26.30;99.90;;;;;;5004319;28;20738;-72
2022/05/20 11:07:51;;;;;;;10.13;2.95;;;26.30;99.90;;;;;;5038640;28;20203;-71
2022/05/20 11:10:38;;;;;;;11.43;3.33;;;26.30;99.90;;;;;;5056999;28;20214;-71
2022/05/20 11:13:42;;;;;;;9.60;3.17;;;26.30;99.90;;;;;;5061141;28;20394;-71
2022/05/20 11:16:27;;;;;;;4.85;2.95;;;26.10;99.90;;;;;;5046855;28;20193;-73
2022/05/20 11:19:35;;;;;;;10.32;2.75;;;26.20;99.90;;;;;;5028370;28;20190;-72
2022/05/20 11:22:43;;;;;;;8.63;3.05;;;26.10;99.90;;;;;;5043673;28;20191;-72
2022/05/20 11:25:43;;;;;;;6.35;2.65;;;26.10;99.90;;;;;;5027276;28;20186;-72
2022/05/20 11:29:01;;;;;;;5.28;3.03;;;26.10;99.90;;;;;;5058038;28;20691;-72
2022/05/20 11:31:45;;;;;;;6.68;3.17;;;26.00;99.90;;;;;;5037612;28;23083;-72
2022/05/20 11:34:33;;;;;;;8.70;2.97;;;26.00;99.90;;;;;;5061613;28;20174;-72
2022/05/20 11:37:28;;;;;;;8.32;3.05;;;26.00;99.90;;;;;;5053103;28;20195;-72
2022/05/20 11:40:25;;;;;;;8.30;3.08;;;26.00;99.90;;;;;;5055533;28;20197;-72
2022/05/20 11:43:33;;;;;;;15.48;3.20;;;26.00;99.90;;;;;;5058668;28;20647;-72
2022/05/20 11:46:50;;;;;;;5.97;3.15;;;26.00;99.90;;;;;;5057333;28;22460;-72
2022/05/20 11:50:07;;;;;;;8.70;2.90;;;26.00;99.90;;;;;;5025030;28;20219;-72
2022/05/20 11:53:14;;;;;;;8.20;3.10;;;26.00;99.90;;;;;;5030760;28;20191;-72
2022/05/20 11:56:02;;;;;;;5.07;2.50;;;26.00;99.90;;;;;;5032004;28;20183;-72
2022/05/20 11:58:56;;;;;;;6.47;3.10;;;26.00;99.90;;;;;;5054287;28;20245;-72
2022/05/20 12:01:28;;;;;;;11.30;3.17;;;26.00;99.90;;;;;;5054230;28;20191;-72
2022/05/20 12:04:09;;;;;;;7.50;2.65;;;26.00;99.90;;;;;;5045164;28;20252;-72
2022/05/20 12:07:12;;;;;;;5.45;2.70;;;26.00;99.90;;;;;;5033527;28;20191;-72
2022/05/20 12:09:40;;;;;;;4.78;2.70;;;26.00;99.90;;;;;;5052878;28;20217;-72
2022/05/20 12:12:33;;;;;;;8.15;3.08;;;26.00;99.90;;;;;;5021614;28;20182;-72
2022/05/20 12:15:13;;;;;;;9.43;2.70;;;26.00;99.90;;;;;;5037108;28;20961;-71
2022/05/20 12:17:52;;;;;;;6.57;2.90;;;25.90;99.90;;;;;;5051447;28;20281;-72
2022/05/20 12:26:45;;;;;;;8.25;2.78;;;25.90;99.90;;;;;;5066698;28;20204;-71
2022/05/20 12:29:39;;;;;;;7.38;2.70;;;26.00;99.90;;;;;;5026017;28;20237;-72
2022/05/20 12:32:36;;;;;;;5.03;2.40;;;25.90;99.90;;;;;;5034246;28;20216;-72
2022/05/20 12:35:34;;;;;;;5.15;2.15;;;25.90;99.90;;;;;;5054287;28;20199;-72
2022/05/20 12:38:25;;;;;;;10.15;2.92;;;25.80;99.90;;;;;;5071918;28;21177;-72
2022/05/20 12:40:57;;;;;;;6.45;2.47;;;25.90;99.90;;;;;;5056304;28;20648;-71
2022/05/20 12:43:54;;;;;;;4.03;2.45;;;26.00;99.90;;;;;;5064334;28;20640;-71
2022/05/20 12:47:05;;;;;;;5.15;2.40;;;25.90;99.90;;;;;;5029793;28;20219;-71
2022/05/20 12:49:47;;;;;;;3.58;2.20;;;25.90;99.90;;;;;;5041700;28;20218;-72
2022/05/20 12:52:45;;;;;;;6.78;2.28;;;25.90;99.90;;;;;;5053103;28;20879;-72
2022/05/20 12:55:28;;;;;;;3.92;2.33;;;26.00;99.90;;;;;;5034284;28;20202;-72
2022/05/20 12:58:03;;;;;;;5.10;2.50;;;25.90;99.90;;;;;;5054036;28;20191;-72
2022/05/20 13:00:52;;;;;;;5.63;2.20;;;25.90;99.90;;;;;;5073722;28;20194;-72
2022/05/20 13:03:41;;;;;;;3.35;2.20;;;25.90;99.90;;;;;;5067954;28;20187;-72
2022/05/20 13:06:27;;;;;;;4.63;1.95;;;25.90;99.90;;;;;;5055882;28;20195;-72
2022/05/20 13:09:02;;;;;;;3.03;2.13;;;26.10;99.90;;;;;;5058356;28;20264;-72
2022/05/20 13:11:47;;;;;;;5.97;2.25;;;26.00;99.90;;;;;;5069178;28;20187;-72
2022/05/20 13:14:19;;;;;;;6.32;2.33;;;26.00;99.90;;;;;;5036546;28;20206;-72
2022/05/20 13:16:58;;;;;;;5.45;2.35;;;26.00;99.90;;;;;;5042496;28;20180;-72
2022/05/20 13:19:47;;;;;;;4.07;2.17;;;26.10;99.90;;;;;;5067592;28;20644;-72
2022/05/20 13:22:21;;;;;;;8.55;2.35;;;26.00;99.90;;;;;;5069644;28;20217;-72
2022/05/20 13:25:05;;;;;;;7.93;2.20;;;26.00;99.90;;;;;;5055038;28;20701;-72
2022/05/20 13:27:32;;;;;;;8.27;2.53;;;26.00;99.90;;;;;;5041732;28;20194;-72
2022/05/20 13:30:28;;;;;;;4.53;2.30;;;25.90;99.90;;;;;;5038601;28;20206;-72
2022/05/20 13:33:06;;;;;;;8.88;2.30;;;25.80;99.90;;;;;;5054461;28;20215;-72
2022/05/20 13:36:07;;;;;;;8.48;2.47;;;25.80;99.90;;;;;;5056255;28;20247;-72
2022/05/20 13:38:42;;;;;;;7.13;2.45;;;25.80;99.90;;;;;;4992192;28;20264;-72
2022/05/20 13:41:10;;;;;;;10.55;2.35;;;25.90;99.90;;;;;;5061374;28;20408;-72
2022/05/20 13:43:41;;;;;;;3.75;2.15;;;26.00;99.90;;;;;;5066223;28;20188;-71
2022/05/20 13:49:14;;;;;;;5.75;2.38;;;26.00;99.90;;;;;;5055844;28;20344;-73
2022/05/20 13:52:00;;;;;;;4.25;2.20;;;25.90;99.90;;;;;;5036354;28;20192;-72
2022/05/20 13:54:41;;;;;;;9.80;2.53;;;25.80;99.90;;;;;;5067158;28;20187;-71
2022/05/20 13:57:37;;;;;;;10.57;2.60;;;25.80;99.90;;;;;;5042538;28;20252;-72
2022/05/20 14:00:48;;;;;;;11.20;3.13;;;26.00;99.90;;;;;;5046479;28;20194;-72
2022/05/20 14:03:27;;;;;;;9.30;3.13;;;26.00;99.90;;;;;;5053707;28;20736;-72
2022/05/20 14:06:26;;;;;;;38.60;6.10;;;26.10;99.80;;;;;;5040422;28;20194;-72
2022/05/20 14:09:08;;;;;;;15.38;2.78;;;26.10;99.70;;;;;;5050954;28;20207;-72
2022/05/20 14:11:55;;;;;;;19.65;3.13;;;26.10;98.70;;;;;;5058246;28;20898;-72
2022/05/20 14:14:31;;;;;;;19.27;3.58;;;26.00;99.00;;;;;;5056803;28;20293;-71
2022/05/20 14:17:02;;;;;;;19.60;3.35;;;25.90;99.30;;;;;;5061908;28;20200;-71